(°C)
-8°
-8°
-8°
-8°
-7°
-7°
-6°
(°C)
-15°
-15°
-15°
-15°
-15°
-14°
-14°
ZZO
ZZO
ZZO
ZZO
ZZO
ZZO
ZZO
(km/u)
20-36
20-36
21-37
22-39
23-41
24-43
24-45
(mm)
0
0
0
0
0
0
0
(%)
0
0
0
0
0
8
22

Zonverhoging

/ -25.8°
sun-icon
UV 0
08:29
16:58
Afnemende maan (308°)
05:16
12:11

METAR voor 55.6°N 37.27°O (UUWW)

Tijd Voorwaarden Temperatuur/
Dauwpunt
Wind Zicht Weer Wolken Luchtdruk Wijzigen Ruw
MVFR -8°C / °C 160º 8kt >10km - Broken Clouds 1100ft 1004 No Significant change. Runway 24: Wet snow, 26-50% contamination with 5mm, friction coefficient 0.37. UUWW 280200Z 16004MPS 9999 BKN011 M08/M10 Q1004 R24/550537 NOSIG
MVFR -8°C / °C 170º 8kt Gust 17kt >10km - Broken Clouds 1100ft 1005 No Significant change. Runway 24: Wet snow, 51-100% contamination with 5mm, friction coefficient 0.37. UUWW 280130Z 17004G09MPS 9999 BKN011 M08/M10 Q1005 R24/590537 NOSIG
VFR -8°C / °C 160º 8kt >10km Light Snow 1.00mm precipitation Vertical Visibility of 0ft.
Broken Clouds 4300ft
1005 No Significant change. Runway 24: Wet snow, 51-100% contamination with 5mm, friction coefficient 0.37. UUWW 280100Z 16004MPS 9999 -SN FEW012 BKN043 M08/M10 Q1005 R24/590537 NOSIG
VFR -8°C / °C 160º 8kt >10km Light Snow 1.00mm precipitation Vertical Visibility of 0ft.
Broken Clouds 4500ft
1005 No Significant change. Runway 24: Wet snow, 26-50% contamination with 2mm, friction coefficient 0.39. UUWW 280030Z 16004MPS 9999 -SN FEW014 BKN045 M08/M11 Q1005 R24/550239 NOSIG
MVFR -8°C / °C 160º 8kt 5000m Light Showers Snow 3.00mm precipitation Vertical Visibility of 0ft. 1006 Temporary: Visibility 1200. Showers Snow . Broken Clouds 1500ft. Cumulonimbus . Runway 24: Wet snow, 26-50% contamination with 2mm, friction coefficient 0.39. UUWW 280000Z 16004MPS 5000 -SHSN OVC027CB M08/M11 Q1006 R24/550239 TEMPO 1200 SHSN BKN015CB
IFR -8°C / °C 160º 8kt 4400m Light Showers Snow 3.00mm precipitation Vertical Visibility of 0ft. 1006 Temporary: Visibility 1200. Showers Snow . Broken Clouds 1500ft. Cumulonimbus . Runway 24: Wet snow, 26-50% contamination with 2mm, friction coefficient 0.39. UUWW 272330Z 16004MPS 4400 -SHSN BKN035CB M08/M11 Q1006 R24/550239 TEMPO 1200 SHSN BKN015CB
MVFR -8°C / °C 170º 10kt 7000m Light Snow 1.00mm precipitation Vertical Visibility of 0ft. 1006 Temporary: Visibility 2000. Showers Snow . Broken Clouds 1500ft. Cumulonimbus . Runway 24: Wet snow, 1-10% contamination with 2mm, friction coefficient 0.42. UUWW 272300Z 17005MPS 7000 -SN BKN048 M08/M11 Q1006 R24/510242 TEMPO 2000 SHSN BKN015CB
VFR -8°C / °C 170º 8kt >10km Light Snow 1.00mm precipitation Vertical Visibility of 0ft. 1006 Temporary: Visibility 2000. Showers Snow . Broken Clouds 1500ft. Cumulonimbus . Runway 24: Wet snow, 1-10% contamination with 2mm, friction coefficient 0.42. UUWW 272230Z 17004MPS 9999 -SN NSC M08/M11 Q1006 R24/510242 TEMPO 2000 SHSN BKN015CB
VFR -8°C / °C 160º 8kt >10km Light Snow 1.00mm precipitation Vertical Visibility of 0ft. 1007 Temporary: Visibility 2000. Showers Snow . Broken Clouds 1500ft. Cumulonimbus . Runway 24: Wet snow, 1-10% contamination with 2mm, friction coefficient 0.42. UUWW 272200Z 16004MPS 9999 -SN BKN036 M08/M11 Q1007 R24/510242 TEMPO 2000 SHSN BKN015CB
MVFR -8°C / °C 170º 10kt >10km - Broken Clouds 2500ft 1007 No Significant change. Runway 24: Wet snow, 1-10% contamination with 2mm, friction coefficient 0.42. UUWW 272130Z 17005MPS 9999 BKN025 M08/M11 Q1007 R24/510242 NOSIG
MVFR -8°C / °C 160º 8kt >10km - Broken Clouds 2200ft 1007 No Significant change. Runway 24: Wet snow, 1-10% contamination with 2mm, friction coefficient 0.42. UUWW 272100Z 16004MPS 9999 BKN022 M08/M11 Q1007 R24/510242 NOSIG
MVFR -9°C / °C 170º 8kt >10km - Broken Clouds 2700ft 1007 No Significant change. Runway 24: Wet snow, 1-10% contamination with 2mm, friction coefficient 0.45. UUWW 272030Z 17004MPS 9999 BKN027 M09/M11 Q1007 R24/510245 NOSIG
MVFR -9°C / °C 160º 10kt >10km - Broken Clouds 3000ft 1007 No Significant change. Runway 24: Wet snow, 1-10% contamination with 2mm, friction coefficient 0.45. UUWW 272000Z 16005MPS 9999 BKN030 M09/M11 Q1007 R24/510245 NOSIG
MVFR -9°C / °C 160º 6kt >10km - Broken Clouds 2500ft 1008 No Significant change. Runway 24: Wet snow, 1-10% contamination with 2mm, friction coefficient 0.45. UUWW 271930Z 16003MPS 9999 BKN025 M09/M11 Q1008 R24/510245 NOSIG
MVFR -9°C / °C 150º 8kt >10km - Broken Clouds 2300ft 1008 No Significant change. Runway 24: Wet snow, 1-10% contamination with 2mm, friction coefficient 0.45. UUWW 271900Z 15004MPS 9999 BKN023 M09/M11 Q1008 R24/510245 NOSIG
MVFR -9°C / °C 160º 8kt >10km - Broken Clouds 2100ft 1008 No Significant change. Runway 24: Wet snow, 1-10% contamination with 2mm, friction coefficient 0.45. UUWW 271830Z 16004MPS 9999 BKN021 M09/M11 Q1008 R24/510245 NOSIG
MVFR -9°C / °C 160º 8kt >10km - Broken Clouds 1800ft 1009 No Significant change. Runway 24: Wet snow, 1-10% contamination with 2mm, friction coefficient 0.45. UUWW 271800Z 16004MPS 9999 BKN018 M09/M11 Q1009 R24/510245 NOSIG
VFR °C / °C 160º 6kt >10km - Few Clouds 2200ft 1009 No Significant change. Runway 24: Wet snow, 1-10% contamination with 2mm, friction coefficient 0.45. UUWW 271730Z 16003MPS 9999 FEW022 M10/M12 Q1009 R24/510245 NOSIG
VFR -9°C / °C 160º 6kt >10km - Few Clouds 2400ft 1009 No Significant change. Runway 24: Wet snow, 1-10% contamination with 2mm, friction coefficient 0.45. UUWW 271700Z 16003MPS 9999 FEW024 M09/M11 Q1009 R24/510245 NOSIG
MVFR -9°C / °C 160º 6kt >10km - Broken Clouds 2300ft 1009 No Significant change. Runway 24: Wet snow, 1-10% contamination with 2mm, friction coefficient 0.45. UUWW 271630Z 16003MPS 9999 BKN023 M09/M11 Q1009 R24/510245 NOSIG
MVFR -9°C / °C 160º 6kt >10km - Broken Clouds 2300ft 1010 No Significant change. Runway 24: Wet snow, 1-10% contamination with 2mm, friction coefficient 0.45. UUWW 271600Z 16003MPS 9999 BKN023 M09/M11 Q1010 R24/510245 NOSIG
VFR -9°C / °C 180º 6kt >10km - Few Clouds 2400ft 1010 No Significant change. Runway 24: Wet snow, 1-10% contamination with 2mm, friction coefficient 0.45. UUWW 271530Z 18003MPS 9999 FEW024 M09/M11 Q1010 R24/510245 NOSIG
MVFR -8°C / °C 170º 8kt >10km - Broken Clouds 2300ft 1010 No Significant change. Runway 24: Wet snow, 1-10% contamination with 2mm, friction coefficient 0.45. UUWW 271500Z 17004MPS 9999 BKN023 M08/M11 Q1010 R24/510245 NOSIG
MVFR -7°C / °C 180º 6kt >10km Light Snow 1.00mm precipitation Vertical Visibility of 0ft. 1010 No Significant change. Runway 24: Wet snow, 1-10% contamination with 2mm, friction coefficient 0.45. UUWW 271430Z 18003MPS 9999 -SN BKN022 M07/M10 Q1010 R24/510245 NOSIG

MVFR

-8°C / °C

[Meer]
Wind 160º 8kt
Zicht >10km
Weer -
Wolken Broken Clouds 1100ft
Luchtdruk 1004
Wijzigen No Significant change. Runway 24: Wet snow, 26-50% contamination with 5mm, friction coefficient 0.37.
Ruw UUWW 280200Z 16004MPS 9999 BKN011 M08/M10 Q1004 R24/550537 NOSIG

MVFR

-8°C / °C

[Meer]
Wind 170º 8kt Gust 17kt
Zicht >10km
Weer -
Wolken Broken Clouds 1100ft
Luchtdruk 1005
Wijzigen No Significant change. Runway 24: Wet snow, 51-100% contamination with 5mm, friction coefficient 0.37.
Ruw UUWW 280130Z 17004G09MPS 9999 BKN011 M08/M10 Q1005 R24/590537 NOSIG

VFR

-8°C / °C

[Meer]
Wind 160º 8kt
Zicht >10km
Weer Light Snow 1.00mm precipitation
Wolken Vertical Visibility of 0ft.
Broken Clouds 4300ft
Luchtdruk 1005
Wijzigen No Significant change. Runway 24: Wet snow, 51-100% contamination with 5mm, friction coefficient 0.37.
Ruw UUWW 280100Z 16004MPS 9999 -SN FEW012 BKN043 M08/M10 Q1005 R24/590537 NOSIG

VFR

-8°C / °C

[Meer]
Wind 160º 8kt
Zicht >10km
Weer Light Snow 1.00mm precipitation
Wolken Vertical Visibility of 0ft.
Broken Clouds 4500ft
Luchtdruk 1005
Wijzigen No Significant change. Runway 24: Wet snow, 26-50% contamination with 2mm, friction coefficient 0.39.
Ruw UUWW 280030Z 16004MPS 9999 -SN FEW014 BKN045 M08/M11 Q1005 R24/550239 NOSIG

MVFR

-8°C / °C

[Meer]
Wind 160º 8kt
Zicht 5000m
Weer Light Showers Snow 3.00mm precipitation
Wolken Vertical Visibility of 0ft.
Luchtdruk 1006
Wijzigen Temporary: Visibility 1200. Showers Snow . Broken Clouds 1500ft. Cumulonimbus . Runway 24: Wet snow, 26-50% contamination with 2mm, friction coefficient 0.39.
Ruw UUWW 280000Z 16004MPS 5000 -SHSN OVC027CB M08/M11 Q1006 R24/550239 TEMPO 1200 SHSN BKN015CB

IFR

-8°C / °C

[Meer]
Wind 160º 8kt
Zicht 4400m
Weer Light Showers Snow 3.00mm precipitation
Wolken Vertical Visibility of 0ft.
Luchtdruk 1006
Wijzigen Temporary: Visibility 1200. Showers Snow . Broken Clouds 1500ft. Cumulonimbus . Runway 24: Wet snow, 26-50% contamination with 2mm, friction coefficient 0.39.
Ruw UUWW 272330Z 16004MPS 4400 -SHSN BKN035CB M08/M11 Q1006 R24/550239 TEMPO 1200 SHSN BKN015CB

MVFR

-8°C / °C

[Meer]
Wind 170º 10kt
Zicht 7000m
Weer Light Snow 1.00mm precipitation
Wolken Vertical Visibility of 0ft.
Luchtdruk 1006
Wijzigen Temporary: Visibility 2000. Showers Snow . Broken Clouds 1500ft. Cumulonimbus . Runway 24: Wet snow, 1-10% contamination with 2mm, friction coefficient 0.42.
Ruw UUWW 272300Z 17005MPS 7000 -SN BKN048 M08/M11 Q1006 R24/510242 TEMPO 2000 SHSN BKN015CB

VFR

-8°C / °C

[Meer]
Wind 170º 8kt
Zicht >10km
Weer Light Snow 1.00mm precipitation
Wolken Vertical Visibility of 0ft.
Luchtdruk 1006
Wijzigen Temporary: Visibility 2000. Showers Snow . Broken Clouds 1500ft. Cumulonimbus . Runway 24: Wet snow, 1-10% contamination with 2mm, friction coefficient 0.42.
Ruw UUWW 272230Z 17004MPS 9999 -SN NSC M08/M11 Q1006 R24/510242 TEMPO 2000 SHSN BKN015CB

VFR

-8°C / °C

[Meer]
Wind 160º 8kt
Zicht >10km
Weer Light Snow 1.00mm precipitation
Wolken Vertical Visibility of 0ft.
Luchtdruk 1007
Wijzigen Temporary: Visibility 2000. Showers Snow . Broken Clouds 1500ft. Cumulonimbus . Runway 24: Wet snow, 1-10% contamination with 2mm, friction coefficient 0.42.
Ruw UUWW 272200Z 16004MPS 9999 -SN BKN036 M08/M11 Q1007 R24/510242 TEMPO 2000 SHSN BKN015CB

MVFR

-8°C / °C

[Meer]
Wind 170º 10kt
Zicht >10km
Weer -
Wolken Broken Clouds 2500ft
Luchtdruk 1007
Wijzigen No Significant change. Runway 24: Wet snow, 1-10% contamination with 2mm, friction coefficient 0.42.
Ruw UUWW 272130Z 17005MPS 9999 BKN025 M08/M11 Q1007 R24/510242 NOSIG

MVFR

-8°C / °C

[Meer]
Wind 160º 8kt
Zicht >10km
Weer -
Wolken Broken Clouds 2200ft
Luchtdruk 1007
Wijzigen No Significant change. Runway 24: Wet snow, 1-10% contamination with 2mm, friction coefficient 0.42.
Ruw UUWW 272100Z 16004MPS 9999 BKN022 M08/M11 Q1007 R24/510242 NOSIG

MVFR

-9°C / °C

[Meer]
Wind 170º 8kt
Zicht >10km
Weer -
Wolken Broken Clouds 2700ft
Luchtdruk 1007
Wijzigen No Significant change. Runway 24: Wet snow, 1-10% contamination with 2mm, friction coefficient 0.45.
Ruw UUWW 272030Z 17004MPS 9999 BKN027 M09/M11 Q1007 R24/510245 NOSIG

MVFR

-9°C / °C

[Meer]
Wind 160º 10kt
Zicht >10km
Weer -
Wolken Broken Clouds 3000ft
Luchtdruk 1007
Wijzigen No Significant change. Runway 24: Wet snow, 1-10% contamination with 2mm, friction coefficient 0.45.
Ruw UUWW 272000Z 16005MPS 9999 BKN030 M09/M11 Q1007 R24/510245 NOSIG

MVFR

-9°C / °C

[Meer]
Wind 160º 6kt
Zicht >10km
Weer -
Wolken Broken Clouds 2500ft
Luchtdruk 1008
Wijzigen No Significant change. Runway 24: Wet snow, 1-10% contamination with 2mm, friction coefficient 0.45.
Ruw UUWW 271930Z 16003MPS 9999 BKN025 M09/M11 Q1008 R24/510245 NOSIG

MVFR

-9°C / °C

[Meer]
Wind 150º 8kt
Zicht >10km
Weer -
Wolken Broken Clouds 2300ft
Luchtdruk 1008
Wijzigen No Significant change. Runway 24: Wet snow, 1-10% contamination with 2mm, friction coefficient 0.45.
Ruw UUWW 271900Z 15004MPS 9999 BKN023 M09/M11 Q1008 R24/510245 NOSIG

MVFR

-9°C / °C

[Meer]
Wind 160º 8kt
Zicht >10km
Weer -
Wolken Broken Clouds 2100ft
Luchtdruk 1008
Wijzigen No Significant change. Runway 24: Wet snow, 1-10% contamination with 2mm, friction coefficient 0.45.
Ruw UUWW 271830Z 16004MPS 9999 BKN021 M09/M11 Q1008 R24/510245 NOSIG

MVFR

-9°C / °C

[Meer]
Wind 160º 8kt
Zicht >10km
Weer -
Wolken Broken Clouds 1800ft
Luchtdruk 1009
Wijzigen No Significant change. Runway 24: Wet snow, 1-10% contamination with 2mm, friction coefficient 0.45.
Ruw UUWW 271800Z 16004MPS 9999 BKN018 M09/M11 Q1009 R24/510245 NOSIG

VFR

°C / °C

[Meer]
Wind 160º 6kt
Zicht >10km
Weer -
Wolken Few Clouds 2200ft
Luchtdruk 1009
Wijzigen No Significant change. Runway 24: Wet snow, 1-10% contamination with 2mm, friction coefficient 0.45.
Ruw UUWW 271730Z 16003MPS 9999 FEW022 M10/M12 Q1009 R24/510245 NOSIG

VFR

-9°C / °C

[Meer]
Wind 160º 6kt
Zicht >10km
Weer -
Wolken Few Clouds 2400ft
Luchtdruk 1009
Wijzigen No Significant change. Runway 24: Wet snow, 1-10% contamination with 2mm, friction coefficient 0.45.
Ruw UUWW 271700Z 16003MPS 9999 FEW024 M09/M11 Q1009 R24/510245 NOSIG

MVFR

-9°C / °C

[Meer]
Wind 160º 6kt
Zicht >10km
Weer -
Wolken Broken Clouds 2300ft
Luchtdruk 1009
Wijzigen No Significant change. Runway 24: Wet snow, 1-10% contamination with 2mm, friction coefficient 0.45.
Ruw UUWW 271630Z 16003MPS 9999 BKN023 M09/M11 Q1009 R24/510245 NOSIG

MVFR

-9°C / °C

[Meer]
Wind 160º 6kt
Zicht >10km
Weer -
Wolken Broken Clouds 2300ft
Luchtdruk 1010
Wijzigen No Significant change. Runway 24: Wet snow, 1-10% contamination with 2mm, friction coefficient 0.45.
Ruw UUWW 271600Z 16003MPS 9999 BKN023 M09/M11 Q1010 R24/510245 NOSIG

VFR

-9°C / °C

[Meer]
Wind 180º 6kt
Zicht >10km
Weer -
Wolken Few Clouds 2400ft
Luchtdruk 1010
Wijzigen No Significant change. Runway 24: Wet snow, 1-10% contamination with 2mm, friction coefficient 0.45.
Ruw UUWW 271530Z 18003MPS 9999 FEW024 M09/M11 Q1010 R24/510245 NOSIG

MVFR

-8°C / °C

[Meer]
Wind 170º 8kt
Zicht >10km
Weer -
Wolken Broken Clouds 2300ft
Luchtdruk 1010
Wijzigen No Significant change. Runway 24: Wet snow, 1-10% contamination with 2mm, friction coefficient 0.45.
Ruw UUWW 271500Z 17004MPS 9999 BKN023 M08/M11 Q1010 R24/510245 NOSIG

MVFR

-7°C / °C

[Meer]
Wind 180º 6kt
Zicht >10km
Weer Light Snow 1.00mm precipitation
Wolken Vertical Visibility of 0ft.
Luchtdruk 1010
Wijzigen No Significant change. Runway 24: Wet snow, 1-10% contamination with 2mm, friction coefficient 0.45.
Ruw UUWW 271430Z 18003MPS 9999 -SN BKN022 M07/M10 Q1010 R24/510245 NOSIG

TAF voor 55.6°N 37.27°O (UUWW)

From till


Maximum Temperature -4ºC on . Minimum Temperature -9ºC on .
From till Wind 160º 14kt. Visibility 6000m. Light Snow . Broken Clouds 900ft.
Temporarly from till Visibility 1400m. Showers Snow Light freezing Rain . Broken Clouds 400ft. Scattered Clouds 2000ft.
Temporarly from till Wind 140º 16kt. Gust 27kt. Visibility 692.016m. Heavy Showers Snow Light freezing Rain . Broken Clouds 400ft. Broken Clouds 1600ft.
Becoming from till Wind 160º 14kt. Visibility 2900m. Light Snow Mist . Overcast 400ft.
With 40% probability, Temporarly from till Light freezing Drizzle . Overcast 300ft.
Temporarly from till Visibility 1200m. Snow . Overcast 200ft.
Becoming from till Wind 140º 4kt. Visibility 2900m. Light Snow Mist . Overcast 400ft.

Ruw: TAF UUWW 280156Z 2803/2903 16007MPS 6000 -SN BKN009 TXM04/2812Z TNM09/2806Z TEMPO 2803/2807 1400 SHSN -FZRA BKN004 SCT020CB TEMPO 2807/2818 14008G14MPS 0700 +SHSN -FZRA BKN004 BKN016CB BECMG 2818/2819 2900 -SN BR OVC004 TEMPO 2819/2903 1200 SN OVC002 PROB40 TEMPO 2819/2903 -FZDZ OVC003 BECMG 2821/2824 14002MPS

Radar en neerslag nowcast voor 55.6°N 37.27°O

Motregen
Licht
Matig
Zwaar
Zeer zwaar
Hail

De locatiemarkering wordt geplaatst op 55.6°N 37.27°O. Deze animation toont de neerslag radar van het afgelopen uur, maar ook de 1h verwachting. Motregen of lichte sneeuwval kan onzichtbaar zijn voor de radar. De neerslagintensiteit wordt met kleuren gecodeerd, van lichtblauw tot oranje.

Huidige satelliet- en regenbeelden voor 55.6°N 37.27°O

De locatiemarkering is geplaatst op 55.6°N 37.27°O. [Meer]

Het realtime satellietbeeld combineert zichtbaar licht overdag met infraroodstraling 's nachts. 's Nachts is het beeld niet donker, omdat infraroodstraling temperatuurverschillen kan waarnemen. Helaas zijn lage wolken en mist moeilijk te onderscheiden van grondtemperaturen en kunnen dus 's nachts bijna onzichtbaar zijn. Meteosat-satellietbeelden voor Europa worden elke 5 minuten in real time bijgewerkt. De beelden van GOES-16/GOES-17 (Noord- en Zuid-Amerika) en Himawari (Azië) worden om de 10 minuten bijgewerkt.

Copyright 2022 EUMETSAT / meteoblue. / Copyright 2022 meteoblue